KNAK

United States Naval Academy Airport

Annapolis, Maryland, USA
METAR KNAK 161854Z AUTO 29004KT 10SM OVC042 06/M03 A3014 RMK AO2 SLP209 T00611028
Observed Flight Rules
Jan-16 @ 18:54 UTC (29 minutes ago) Visual Flight Rules
Wind Visibility Clouds
290° at 4 knots 10 miles
  • Overcast at 4,200' AGL
Temperatures Readings
Current 6°C / 43°F
Dewpoint -3°C / 27°F
Humidity 53%
Altimeter 30.14" Hg
Pressure 1020.9 hPa
Elevation 2
METAR KNAK 161854Z AUTO 29004KT 10SM OVC042 06/M03 A3014 RMK AO2 SLP209 T00611028
Observed Flight Rules
Jan-16 @ 18:54 UTC
(29 minutes ago)
VFR
Wind Visibility
290° at 4 knots 10 miles
Clouds
  • Overcast at 4,200' AGL
Temperature Dewpoint
6°C / 43°F -3°C / 27°F
Humidity Altimeter Pressure
53% 30.14" Hg 1020.9 hPa